Ege, Indiana
Current Conditions -  °F | °C
As of 5:35 AM on Saturday 01 Nov 2014 (Local Time) from KGWB Reporting Station
Overcast Overcast  
Wind Chill: 20°   Ceiling: 2700
Heat Index: 32°   Visibility: 10mi
Dew Point: 23°   Wind: 18mph
Humidity: 69%   Direction: 360°N
Pressure: 30.23"   Gusts: 25mph
Location:  41.3048°N, 85.2502°W
Report Text: KGWB 010935Z AUTO 36016G22KT 10SM OVC027 00/M05 A3023 RMK AO2
Loading
Personal Weather Stations






























Interactive Weather Map
Tropical Storm Tracking
New forecast layout! Learn more

10-Day Weather Forecast

Advertisements
Track Severe Weather on mobile